sensor_id;sensor_type;location;lat;lon;timestamp;pressure;altitude;pressure_sealevel;temperature;humidity
45078;BME280;60508;42.622;25.416;2022-08-19T00:00:25;96378.53;;;25.54;49.65
45078;BME280;60508;42.622;25.416;2022-08-19T00:02:51;96378.75;;;25.61;49.75
45078;BME280;60508;42.622;25.416;2022-08-19T00:05:18;96378.94;;;25.68;50.10
45078;BME280;60508;42.622;25.416;2022-08-19T00:07:44;96386.50;;;25.72;49.78
45078;BME280;60508;42.622;25.416;2022-08-19T00:10:13;96377.25;;;25.64;50.03
45078;BME280;60508;42.622;25.416;2022-08-19T00:12:39;96374.69;;;25.71;47.99
45078;BME280;60508;42.622;25.416;2022-08-19T00:15:09;96375.00;;;25.54;47.98
45078;BME280;60508;42.622;25.416;2022-08-19T00:17:42;96364.78;;;25.26;48.10
45078;BME280;60508;42.622;25.416;2022-08-19T00:20:11;96378.66;;;25.29;48.14
45078;BME280;60508;42.622;25.416;2022-08-19T00:22:38;96376.84;;;25.09;48.93
45078;BME280;60508;42.622;25.416;2022-08-19T00:25:05;96360.44;;;24.84;49.63
45078;BME280;60508;42.622;25.416;2022-08-19T00:27:32;96371.25;;;25.05;49.98
45078;BME280;60508;42.622;25.416;2022-08-19T00:29:58;96373.66;;;25.07;50.50
45078;BME280;60508;42.622;25.416;2022-08-19T00:32:25;96362.09;;;25.01;48.76
45078;BME280;60508;42.622;25.416;2022-08-19T00:34:52;96368.41;;;25.02;48.78
45078;BME280;60508;42.622;25.416;2022-08-19T00:37:21;96363.34;;;25.04;48.72
45078;BME280;60508;42.622;25.416;2022-08-19T00:39:50;96365.84;;;25.09;48.61
45078;BME280;60508;42.622;25.416;2022-08-19T00:42:18;96357.06;;;25.03;48.26
45078;BME280;60508;42.622;25.416;2022-08-19T00:44:44;96361.66;;;24.87;48.64
45078;BME280;60508;42.622;25.416;2022-08-19T00:47:10;96353.13;;;24.64;49.00
45078;BME280;60508;42.622;25.416;2022-08-19T00:49:38;96358.13;;;24.49;49.37
45078;BME280;60508;42.622;25.416;2022-08-19T00:52:11;96345.22;;;24.37;49.41
45078;BME280;60508;42.622;25.416;2022-08-19T00:54:39;96349.00;;;24.33;49.83
45078;BME280;60508;42.622;25.416;2022-08-19T00:57:08;96353.91;;;24.27;50.01
45078;BME280;60508;42.622;25.416;2022-08-19T00:59:36;96359.63;;;24.10;50.34
45078;BME280;60508;42.622;25.416;2022-08-19T01:02:04;96362.59;;;24.04;50.51
45078;BME280;60508;42.622;25.416;2022-08-19T01:04:31;96358.81;;;24.09;49.96
45078;BME280;60508;42.622;25.416;2022-08-19T01:06:57;96360.31;;;24.06;50.08
45078;BME280;60508;42.622;25.416;2022-08-19T01:09:23;96360.75;;;23.96;50.26
45078;BME280;60508;42.622;25.416;2022-08-19T01:11:50;96361.41;;;23.93;50.56
45078;BME280;60508;42.622;25.416;2022-08-19T01:14:18;96355.81;;;23.90;50.49
45078;BME280;60508;42.622;25.416;2022-08-19T01:16:45;96362.47;;;23.88;50.52
45078;BME280;60508;42.622;25.416;2022-08-19T01:19:33;96356.50;;;23.86;50.52
45078;BME280;60508;42.622;25.416;2022-08-19T01:24:30;96347.47;;;23.86;49.99
45078;BME280;60508;42.622;25.416;2022-08-19T01:26:56;96354.59;;;23.87;49.93
45078;BME280;60508;42.622;25.416;2022-08-19T01:29:22;96355.31;;;23.75;50.22
45078;BME280;60508;42.622;25.416;2022-08-19T01:31:48;96355.56;;;23.82;50.70
45078;BME280;60508;42.622;25.416;2022-08-19T01:34:19;96363.59;;;23.87;51.06
45078;BME280;60508;42.622;25.416;2022-08-19T01:36:46;96345.78;;;23.94;50.32
45078;BME280;60508;42.622;25.416;2022-08-19T01:39:19;96358.97;;;24.13;49.92
45078;BME280;60508;42.622;25.416;2022-08-19T01:41:46;96362.84;;;24.12;50.02
45078;BME280;60508;42.622;25.416;2022-08-19T01:44:14;96364.97;;;24.06;49.98
45078;BME280;60508;42.622;25.416;2022-08-19T01:46:42;96377.31;;;23.87;50.63
45078;BME280;60508;42.622;25.416;2022-08-19T01:49:08;96370.25;;;23.65;51.24
45078;BME280;60508;42.622;25.416;2022-08-19T01:51:35;96372.97;;;23.53;51.11
45078;BME280;60508;42.622;25.416;2022-08-19T01:54:01;96373.38;;;23.43;51.38
45078;BME280;60508;42.622;25.416;2022-08-19T01:56:27;96378.88;;;23.22;52.46
45078;BME280;60508;42.622;25.416;2022-08-19T01:58:56;96386.66;;;22.69;53.89
45078;BME280;60508;42.622;25.416;2022-08-19T02:01:23;96379.44;;;22.64;54.17
45078;BME280;60508;42.622;25.416;2022-08-19T02:03:49;96383.69;;;22.53;53.99
45078;BME280;60508;42.622;25.416;2022-08-19T02:06:15;96379.41;;;22.43;54.21
45078;BME280;60508;42.622;25.416;2022-08-19T02:08:43;96385.03;;;22.47;54.05
45078;BME280;60508;42.622;25.416;2022-08-19T02:11:19;96384.63;;;22.57;53.58
45078;BME280;60508;42.622;25.416;2022-08-19T02:13:46;96383.88;;;22.77;53.09
45078;BME280;60508;42.622;25.416;2022-08-19T02:16:12;96398.63;;;22.64;53.46
45078;BME280;60508;42.622;25.416;2022-08-19T02:18:38;96384.50;;;22.53;53.66
45078;BME280;60508;42.622;25.416;2022-08-19T02:21:04;96373.31;;;22.37;53.88
45078;BME280;60508;42.622;25.416;2022-08-19T02:23:31;96380.22;;;22.35;54.10
45078;BME280;60508;42.622;25.416;2022-08-19T02:25:57;96377.47;;;22.43;53.84
45078;BME280;60508;42.622;25.416;2022-08-19T02:28:23;96382.28;;;22.47;53.66
45078;BME280;60508;42.622;25.416;2022-08-19T02:30:49;96381.28;;;22.51;53.68
45078;BME280;60508;42.622;25.416;2022-08-19T02:33:16;96373.34;;;22.58;53.35
45078;BME280;60508;42.622;25.416;2022-08-19T02:35:44;96381.88;;;22.57;53.53
45078;BME280;60508;42.622;25.416;2022-08-19T02:38:11;96385.09;;;22.59;54.02
45078;BME280;60508;42.622;25.416;2022-08-19T02:40:59;96386.81;;;22.72;53.90
45078;BME280;60508;42.622;25.416;2022-08-19T02:43:27;96384.09;;;22.93;53.71
45078;BME280;60508;42.622;25.416;2022-08-19T02:45:53;96381.81;;;22.95;53.53
45078;BME280;60508;42.622;25.416;2022-08-19T02:48:21;96390.13;;;23.08;53.19
45078;BME280;60508;42.622;25.416;2022-08-19T02:50:48;96396.66;;;23.15;53.20
45078;BME280;60508;42.622;25.416;2022-08-19T02:53:26;96392.03;;;23.28;53.37
45078;BME280;60508;42.622;25.416;2022-08-19T02:55:54;96394.41;;;23.39;53.60
45078;BME280;60508;42.622;25.416;2022-08-19T02:58:21;96394.41;;;23.39;52.73
45078;BME280;60508;42.622;25.416;2022-08-19T03:00:51;96385.03;;;23.19;52.85
45078;BME280;60508;42.622;25.416;2022-08-19T03:03:18;96394.25;;;23.14;53.19
45078;BME280;60508;42.622;25.416;2022-08-19T03:05:45;96401.41;;;23.06;53.24
45078;BME280;60508;42.622;25.416;2022-08-19T03:08:12;96407.13;;;22.92;53.14
45078;BME280;60508;42.622;25.416;2022-08-19T03:10:46;96402.63;;;22.88;52.96
45078;BME280;60508;42.622;25.416;2022-08-19T03:13:14;96403.03;;;22.77;53.20
45078;BME280;60508;42.622;25.416;2022-08-19T03:15:46;96410.69;;;22.63;53.54
45078;BME280;60508;42.622;25.416;2022-08-19T03:18:14;96405.44;;;22.49;54.08
45078;BME280;60508;42.622;25.416;2022-08-19T03:20:45;96414.38;;;22.29;54.53
45078;BME280;60508;42.622;25.416;2022-08-19T03:23:11;96397.19;;;22.19;55.31
45078;BME280;60508;42.622;25.416;2022-08-19T03:25:44;96416.34;;;22.19;55.69
45078;BME280;60508;42.622;25.416;2022-08-19T03:28:11;96421.81;;;22.11;55.67
45078;BME280;60508;42.622;25.416;2022-08-19T03:30:39;96430.66;;;22.16;55.45
45078;BME280;60508;42.622;25.416;2022-08-19T03:33:10;96425.19;;;22.16;54.91
45078;BME280;60508;42.622;25.416;2022-08-19T03:35:40;96430.16;;;22.23;54.72
45078;BME280;60508;42.622;25.416;2022-08-19T03:38:06;96433.59;;;22.11;54.65
45078;BME280;60508;42.622;25.416;2022-08-19T03:40:35;96438.59;;;22.00;55.10
45078;BME280;60508;42.622;25.416;2022-08-19T03:43:02;96441.03;;;21.84;55.97
45078;BME280;60508;42.622;25.416;2022-08-19T03:45:29;96450.69;;;21.91;55.89
45078;BME280;60508;42.622;25.416;2022-08-19T03:47:55;96441.66;;;21.99;55.43
45078;BME280;60508;42.622;25.416;2022-08-19T03:50:21;96435.72;;;21.97;55.42
45078;BME280;60508;42.622;25.416;2022-08-19T03:52:49;96433.00;;;21.88;55.70
45078;BME280;60508;42.622;25.416;2022-08-19T03:55:17;96439.94;;;21.85;55.78
45078;BME280;60508;42.622;25.416;2022-08-19T03:57:44;96434.13;;;21.87;55.98
45078;BME280;60508;42.622;25.416;2022-08-19T04:00:12;96421.09;;;21.84;56.09
45078;BME280;60508;42.622;25.416;2022-08-19T04:02:38;96424.50;;;21.81;56.12
45078;BME280;60508;42.622;25.416;2022-08-19T04:05:04;96426.59;;;21.84;55.86
45078;BME280;60508;42.622;25.416;2022-08-19T04:07:31;96397.31;;;21.76;55.54
45078;BME280;60508;42.622;25.416;2022-08-19T04:09:57;96426.84;;;22.09;55.39
45078;BME280;60508;42.622;25.416;2022-08-19T04:12:23;96426.31;;;22.15;55.03
45078;BME280;60508;42.622;25.416;2022-08-19T04:14:49;96430.50;;;22.21;54.87
45078;BME280;60508;42.622;25.416;2022-08-19T04:17:15;96444.78;;;22.36;54.62
45078;BME280;60508;42.622;25.416;2022-08-19T04:19:41;96431.41;;;22.43;54.30
45078;BME280;60508;42.622;25.416;2022-08-19T04:22:08;96446.75;;;22.65;54.08
45078;BME280;60508;42.622;25.416;2022-08-19T04:24:36;96444.00;;;22.74;53.87
45078;BME280;60508;42.622;25.416;2022-08-19T04:27:03;96434.38;;;22.89;53.47
45078;BME280;60508;42.622;25.416;2022-08-19T04:29:29;96437.19;;;23.10;53.14
45078;BME280;60508;42.622;25.416;2022-08-19T04:31:57;96434.91;;;23.33;52.49
45078;BME280;60508;42.622;25.416;2022-08-19T04:34:26;96436.78;;;23.41;52.52
45078;BME280;60508;42.622;25.416;2022-08-19T04:36:53;96436.97;;;23.57;52.11
45078;BME280;60508;42.622;25.416;2022-08-19T04:39:23;96438.69;;;23.83;51.29
45078;BME280;60508;42.622;25.416;2022-08-19T04:42:10;96435.16;;;23.95;50.86
45078;BME280;60508;42.622;25.416;2022-08-19T04:44:55;96440.41;;;23.87;50.72
45078;BME280;60508;42.622;25.416;2022-08-19T04:47:21;96429.00;;;23.85;50.85
45078;BME280;60508;42.622;25.416;2022-08-19T04:49:48;96424.47;;;23.81;51.01
45078;BME280;60508;42.622;25.416;2022-08-19T04:52:14;96422.69;;;23.85;50.84
45078;BME280;60508;42.622;25.416;2022-08-19T04:54:41;96427.03;;;23.86;50.98
45078;BME280;60508;42.622;25.416;2022-08-19T04:57:08;96431.84;;;23.89;50.98
45078;BME280;60508;42.622;25.416;2022-08-19T04:59:36;96443.03;;;23.84;51.31
45078;BME280;60508;42.622;25.416;2022-08-19T05:02:04;96440.34;;;23.75;51.90
45078;BME280;60508;42.622;25.416;2022-08-19T05:04:30;96429.25;;;23.72;52.20
45078;BME280;60508;42.622;25.416;2022-08-19T05:06:57;96430.53;;;23.74;51.87
45078;BME280;60508;42.622;25.416;2022-08-19T05:09:23;96435.69;;;23.76;51.81
45078;BME280;60508;42.622;25.416;2022-08-19T05:11:49;96437.41;;;23.80;52.00
45078;BME280;60508;42.622;25.416;2022-08-19T05:14:18;96430.44;;;23.83;51.81
45078;BME280;60508;42.622;25.416;2022-08-19T05:16:45;96432.09;;;23.96;51.76
45078;BME280;60508;42.622;25.416;2022-08-19T05:19:11;96429.34;;;23.96;51.91
45078;BME280;60508;42.622;25.416;2022-08-19T05:21:56;96432.00;;;24.05;51.79
45078;BME280;60508;42.622;25.416;2022-08-19T05:24:41;96431.91;;;24.14;51.49
45078;BME280;60508;42.622;25.416;2022-08-19T05:27:07;96424.38;;;24.23;51.24
45078;BME280;60508;42.622;25.416;2022-08-19T05:29:33;96437.78;;;24.37;50.76
45078;BME280;60508;42.622;25.416;2022-08-19T05:32:04;96436.19;;;24.36;50.64
45078;BME280;60508;42.622;25.416;2022-08-19T05:34:31;96449.31;;;24.30;50.94
45078;BME280;60508;42.622;25.416;2022-08-19T05:36:59;96442.31;;;24.20;51.50
45078;BME280;60508;42.622;25.416;2022-08-19T05:39:29;96446.22;;;24.19;51.57
45078;BME280;60508;42.622;25.416;2022-08-19T05:41:59;96443.28;;;24.37;51.44
45078;BME280;60508;42.622;25.416;2022-08-19T05:44:27;96444.63;;;24.43;51.21
45078;BME280;60508;42.622;25.416;2022-08-19T05:46:58;96445.31;;;24.40;51.51
45078;BME280;60508;42.622;25.416;2022-08-19T05:49:26;96430.22;;;24.46;51.56
45078;BME280;60508;42.622;25.416;2022-08-19T05:51:53;96449.00;;;24.44;51.70
45078;BME280;60508;42.622;25.416;2022-08-19T05:54:20;96447.28;;;24.52;51.51
45078;BME280;60508;42.622;25.416;2022-08-19T05:56:46;96429.13;;;24.59;51.49
45078;BME280;60508;42.622;25.416;2022-08-19T05:59:15;96441.38;;;24.74;51.12
45078;BME280;60508;42.622;25.416;2022-08-19T06:01:44;96440.56;;;24.86;50.79
45078;BME280;60508;42.622;25.416;2022-08-19T06:04:12;96441.34;;;24.99;50.56
45078;BME280;60508;42.622;25.416;2022-08-19T06:06:39;96442.72;;;25.18;49.93
45078;BME280;60508;42.622;25.416;2022-08-19T06:09:06;96449.34;;;25.29;49.72
45078;BME280;60508;42.622;25.416;2022-08-19T06:11:44;96445.53;;;25.33;49.43
45078;BME280;60508;42.622;25.416;2022-08-19T06:14:13;96445.41;;;25.42;49.16
45078;BME280;60508;42.622;25.416;2022-08-19T06:16:41;96442.16;;;25.52;48.97
45078;BME280;60508;42.622;25.416;2022-08-19T06:19:11;96447.47;;;25.74;48.69
45078;BME280;60508;42.622;25.416;2022-08-19T06:21:39;96437.38;;;25.78;48.30
45078;BME280;60508;42.622;25.416;2022-08-19T06:24:07;96446.94;;;25.96;47.99
45078;BME280;60508;42.622;25.416;2022-08-19T06:26:35;96457.53;;;26.10;47.99
45078;BME280;60508;42.622;25.416;2022-08-19T06:29:03;96451.44;;;26.33;47.57
45078;BME280;60508;42.622;25.416;2022-08-19T06:31:33;96449.22;;;26.54;46.77
45078;BME280;60508;42.622;25.416;2022-08-19T06:34:00;96438.81;;;26.64;46.26
45078;BME280;60508;42.622;25.416;2022-08-19T06:36:36;96447.53;;;26.82;45.58
45078;BME280;60508;42.622;25.416;2022-08-19T06:39:08;96452.22;;;26.97;45.62
45078;BME280;60508;42.622;25.416;2022-08-19T06:41:36;96450.16;;;27.10;45.05
45078;BME280;60508;42.622;25.416;2022-08-19T06:44:03;96447.09;;;27.31;44.71
45078;BME280;60508;42.622;25.416;2022-08-19T06:46:30;96450.44;;;27.40;44.31
45078;BME280;60508;42.622;25.416;2022-08-19T06:48:57;96447.03;;;27.47;43.81
45078;BME280;60508;42.622;25.416;2022-08-19T06:51:24;96443.84;;;27.64;43.53
45078;BME280;60508;42.622;25.416;2022-08-19T06:53:52;96444.06;;;27.56;42.94
45078;BME280;60508;42.622;25.416;2022-08-19T06:56:21;96456.25;;;27.74;43.16
45078;BME280;60508;42.622;25.416;2022-08-19T06:58:48;96443.69;;;27.77;43.52
45078;BME280;60508;42.622;25.416;2022-08-19T07:01:17;96444.13;;;27.98;43.45
45078;BME280;60508;42.622;25.416;2022-08-19T07:03:44;96444.84;;;27.95;43.29
45078;BME280;60508;42.622;25.416;2022-08-19T07:06:15;96443.34;;;27.98;43.58
45078;BME280;60508;42.622;25.416;2022-08-19T07:08:47;96443.34;;;28.21;43.23
45078;BME280;60508;42.622;25.416;2022-08-19T07:11:16;96450.97;;;28.28;43.31
45078;BME280;60508;42.622;25.416;2022-08-19T07:13:43;96447.63;;;28.15;43.31
45078;BME280;60508;42.622;25.416;2022-08-19T07:16:13;96454.13;;;28.26;43.38
45078;BME280;60508;42.622;25.416;2022-08-19T07:18:42;96442.88;;;28.38;42.79
45078;BME280;60508;42.622;25.416;2022-08-19T07:21:16;96455.09;;;28.57;43.00
45078;BME280;60508;42.622;25.416;2022-08-19T07:23:42;96456.09;;;28.72;42.00
45078;BME280;60508;42.622;25.416;2022-08-19T07:26:14;96452.94;;;28.96;41.93
45078;BME280;60508;42.622;25.416;2022-08-19T07:28:41;96453.34;;;28.99;40.87
45078;BME280;60508;42.622;25.416;2022-08-19T07:31:12;96455.81;;;29.04;40.86
45078;BME280;60508;42.622;25.416;2022-08-19T07:33:40;96456.19;;;29.29;40.19
45078;BME280;60508;42.622;25.416;2022-08-19T07:36:07;96457.63;;;29.46;39.49
45078;BME280;60508;42.622;25.416;2022-08-19T07:38:40;96456.59;;;29.61;38.94
45078;BME280;60508;42.622;25.416;2022-08-19T07:41:09;96454.91;;;29.53;39.59
45078;BME280;60508;42.622;25.416;2022-08-19T07:43:36;96459.19;;;29.47;39.26
45078;BME280;60508;42.622;25.416;2022-08-19T07:46:02;96458.66;;;29.68;38.73
45078;BME280;60508;42.622;25.416;2022-08-19T07:48:29;96453.38;;;29.86;38.35
45078;BME280;60508;42.622;25.416;2022-08-19T07:50:59;96451.63;;;30.08;38.70
45078;BME280;60508;42.622;25.416;2022-08-19T07:53:32;96450.66;;;30.31;37.86
45078;BME280;60508;42.622;25.416;2022-08-19T07:56:01;96441.28;;;30.39;36.71
45078;BME280;60508;42.622;25.416;2022-08-19T07:58:31;96448.09;;;30.49;36.06
45078;BME280;60508;42.622;25.416;2022-08-19T08:00:58;96444.91;;;30.47;35.28
45078;BME280;60508;42.622;25.416;2022-08-19T08:03:25;96448.03;;;30.42;35.19
45078;BME280;60508;42.622;25.416;2022-08-19T08:06:15;96450.25;;;30.70;35.25
45078;BME280;60508;42.622;25.416;2022-08-19T08:09:04;96433.81;;;30.95;34.61
45078;BME280;60508;42.622;25.416;2022-08-19T08:11:56;96430.78;;;31.15;34.10
45078;BME280;60508;42.622;25.416;2022-08-19T08:14:26;96430.50;;;31.38;34.15
45078;BME280;60508;42.622;25.416;2022-08-19T08:16:53;96429.44;;;31.57;33.56
45078;BME280;60508;42.622;25.416;2022-08-19T08:19:21;96433.88;;;31.79;33.29
45078;BME280;60508;42.622;25.416;2022-08-19T08:21:48;96418.06;;;31.91;32.98
45078;BME280;60508;42.622;25.416;2022-08-19T08:24:15;96428.88;;;32.14;32.26
45078;BME280;60508;42.622;25.416;2022-08-19T08:26:41;96430.84;;;32.17;32.26
45078;BME280;60508;42.622;25.416;2022-08-19T08:29:10;96431.19;;;32.04;32.42
45078;BME280;60508;42.622;25.416;2022-08-19T08:31:43;96432.44;;;32.14;32.83
45078;BME280;60508;42.622;25.416;2022-08-19T08:34:11;96440.41;;;32.41;32.30
45078;BME280;60508;42.622;25.416;2022-08-19T08:36:43;96429.31;;;32.59;31.94
45078;BME280;60508;42.622;25.416;2022-08-19T08:39:15;96438.03;;;32.54;31.92
45078;BME280;60508;42.622;25.416;2022-08-19T08:47:14;96440.66;;;31.82;33.12
45078;BME280;60508;42.622;25.416;2022-08-19T08:49:47;96433.09;;;31.75;32.53
45078;BME280;60508;42.622;25.416;2022-08-19T08:52:24;96426.75;;;31.78;32.58
45078;BME280;60508;42.622;25.416;2022-08-19T08:54:53;96430.66;;;31.63;32.81
45078;BME280;60508;42.622;25.416;2022-08-19T08:57:23;96425.75;;;31.35;33.06
45078;BME280;60508;42.622;25.416;2022-08-19T08:59:53;96422.13;;;31.27;33.52
45078;BME280;60508;42.622;25.416;2022-08-19T09:02:20;96418.13;;;31.21;33.49
45078;BME280;60508;42.622;25.416;2022-08-19T09:04:46;96424.88;;;31.20;33.76
45078;BME280;60508;42.622;25.416;2022-08-19T09:10:04;96385.44;;;30.92;33.25
45078;BME280;60508;42.622;25.416;2022-08-19T09:12:47;96420.44;;;31.04;33.45
45078;BME280;60508;42.622;25.416;2022-08-19T09:15:18;96419.22;;;31.05;33.71
45078;BME280;60508;42.622;25.416;2022-08-19T09:17:48;96414.97;;;31.22;33.73
45078;BME280;60508;42.622;25.416;2022-08-19T09:20:22;96416.72;;;31.52;32.46
45078;BME280;60508;42.622;25.416;2022-08-19T09:22:48;96409.31;;;31.85;31.70
45078;BME280;60508;42.622;25.416;2022-08-19T09:25:17;96426.41;;;32.01;31.31
45078;BME280;60508;42.622;25.416;2022-08-19T09:27:44;96429.19;;;32.05;31.57
45078;BME280;60508;42.622;25.416;2022-08-19T09:30:45;96416.16;;;32.13;31.22
45078;BME280;60508;42.622;25.416;2022-08-19T09:33:05;96393.16;;;32.27;31.26
45078;BME280;60508;42.622;25.416;2022-08-19T09:35:32;96424.16;;;32.83;30.40
45078;BME280;60508;42.622;25.416;2022-08-19T09:37:59;96423.72;;;33.27;29.54
45078;BME280;60508;42.622;25.416;2022-08-19T09:40:29;96410.53;;;33.39;29.52
45078;BME280;60508;42.622;25.416;2022-08-19T09:42:57;96416.97;;;33.03;29.90
45078;BME280;60508;42.622;25.416;2022-08-19T09:45:25;96418.59;;;32.72;30.79
45078;BME280;60508;42.622;25.416;2022-08-19T09:47:52;96416.63;;;32.69;30.96
45078;BME280;60508;42.622;25.416;2022-08-19T09:50:19;96411.81;;;32.58;30.67
45078;BME280;60508;42.622;25.416;2022-08-19T09:52:45;96409.03;;;32.94;30.39
45078;BME280;60508;42.622;25.416;2022-08-19T09:55:12;96408.19;;;33.26;29.95
45078;BME280;60508;42.622;25.416;2022-08-19T09:57:38;96413.38;;;33.24;30.07
45078;BME280;60508;42.622;25.416;2022-08-19T10:00:06;96411.38;;;33.07;29.57
45078;BME280;60508;42.622;25.416;2022-08-19T10:02:33;96419.78;;;32.96;29.14
45078;BME280;60508;42.622;25.416;2022-08-19T10:04:59;96406.19;;;33.16;28.97
45078;BME280;60508;42.622;25.416;2022-08-19T10:07:44;96403.78;;;33.40;28.67
45078;BME280;60508;42.622;25.416;2022-08-19T10:10:10;96399.31;;;33.64;28.32
45078;BME280;60508;42.622;25.416;2022-08-19T10:12:36;96403.59;;;33.83;28.36
45078;BME280;60508;42.622;25.416;2022-08-19T10:15:05;96405.53;;;33.97;28.03
45078;BME280;60508;42.622;25.416;2022-08-19T10:17:32;96399.13;;;34.00;27.67
45078;BME280;60508;42.622;25.416;2022-08-19T10:19:59;96400.63;;;34.15;27.53
45078;BME280;60508;42.622;25.416;2022-08-19T10:22:25;96394.63;;;34.20;27.66
45078;BME280;60508;42.622;25.416;2022-08-19T10:24:51;96397.38;;;34.28;27.40
45078;BME280;60508;42.622;25.416;2022-08-19T10:27:18;96389.47;;;34.23;27.97
45078;BME280;60508;42.622;25.416;2022-08-19T10:29:43;96402.75;;;33.97;28.34
45078;BME280;60508;42.622;25.416;2022-08-19T10:32:10;96395.50;;;34.07;27.78
45078;BME280;60508;42.622;25.416;2022-08-19T10:34:37;96405.81;;;34.13;27.96
45078;BME280;60508;42.622;25.416;2022-08-19T10:37:05;96404.47;;;34.39;27.40
45078;BME280;60508;42.622;25.416;2022-08-19T10:39:34;96378.84;;;34.55;27.18
45078;BME280;60508;42.622;25.416;2022-08-19T10:42:07;96386.59;;;34.30;27.07
45078;BME280;60508;42.622;25.416;2022-08-19T10:44:33;96385.75;;;34.40;27.23
45078;BME280;60508;42.622;25.416;2022-08-19T10:47:01;96393.63;;;34.49;26.42
45078;BME280;60508;42.622;25.416;2022-08-19T10:49:27;96389.06;;;34.73;26.79
45078;BME280;60508;42.622;25.416;2022-08-19T10:51:54;96385.97;;;35.05;26.50
45078;BME280;60508;42.622;25.416;2022-08-19T10:54:38;96395.25;;;35.33;26.17
45078;BME280;60508;42.622;25.416;2022-08-19T10:57:23;96364.66;;;35.22;25.67
45078;BME280;60508;42.622;25.416;2022-08-19T10:59:55;96372.78;;;35.09;25.93
45078;BME280;60508;42.622;25.416;2022-08-19T11:02:22;96380.22;;;35.20;26.50
45078;BME280;60508;42.622;25.416;2022-08-19T11:04:48;96380.56;;;35.25;26.07
45078;BME280;60508;42.622;25.416;2022-08-19T11:07:16;96385.22;;;35.39;26.04
45078;BME280;60508;42.622;25.416;2022-08-19T11:09:43;96381.00;;;35.58;25.41
45078;BME280;60508;42.622;25.416;2022-08-19T11:12:09;96383.22;;;35.74;25.56
45078;BME280;60508;42.622;25.416;2022-08-19T11:14:36;96370.84;;;35.72;25.59
45078;BME280;60508;42.622;25.416;2022-08-19T11:17:03;96368.81;;;35.72;25.35
45078;BME280;60508;42.622;25.416;2022-08-19T11:19:30;96369.78;;;35.93;25.74
45078;BME280;60508;42.622;25.416;2022-08-19T11:21:56;96369.84;;;35.89;25.49
45078;BME280;60508;42.622;25.416;2022-08-19T11:24:24;96367.31;;;35.98;25.36
45078;BME280;60508;42.622;25.416;2022-08-19T11:26:52;96369.06;;;36.16;25.63
45078;BME280;60508;42.622;25.416;2022-08-19T11:29:21;96361.34;;;36.24;25.77
45078;BME280;60508;42.622;25.416;2022-08-19T11:31:49;96367.03;;;36.44;25.48
45078;BME280;60508;42.622;25.416;2022-08-19T11:34:19;96363.63;;;36.32;24.76
45078;BME280;60508;42.622;25.416;2022-08-19T11:36:46;96359.16;;;36.35;24.31
45078;BME280;60508;42.622;25.416;2022-08-19T11:39:16;96356.06;;;36.53;24.58
45078;BME280;60508;42.622;25.416;2022-08-19T11:41:43;96347.19;;;36.34;25.02
45078;BME280;60508;42.622;25.416;2022-08-19T11:44:09;96354.00;;;36.57;25.21
45078;BME280;60508;42.622;25.416;2022-08-19T11:46:36;96349.94;;;36.62;25.06
45078;BME280;60508;42.622;25.416;2022-08-19T11:49:04;96349.72;;;36.76;25.05
45078;BME280;60508;42.622;25.416;2022-08-19T11:51:31;96348.63;;;36.90;24.49
45078;BME280;60508;42.622;25.416;2022-08-19T11:53:59;96358.97;;;36.73;24.83
45078;BME280;60508;42.622;25.416;2022-08-19T11:56:26;96343.41;;;36.68;25.32
45078;BME280;60508;42.622;25.416;2022-08-19T11:58:54;96354.16;;;36.50;25.31
45078;BME280;60508;42.622;25.416;2022-08-19T12:01:24;96346.66;;;36.67;24.81
45078;BME280;60508;42.622;25.416;2022-08-19T12:03:52;96343.78;;;36.94;24.22
45078;BME280;60508;42.622;25.416;2022-08-19T12:06:26;96341.09;;;36.87;23.89
45078;BME280;60508;42.622;25.416;2022-08-19T12:08:56;96330.84;;;36.80;24.28
45078;BME280;60508;42.622;25.416;2022-08-19T12:11:23;96331.47;;;36.64;23.73
45078;BME280;60508;42.622;25.416;2022-08-19T12:13:49;96337.78;;;36.48;24.20
45078;BME280;60508;42.622;25.416;2022-08-19T12:16:20;96306.03;;;36.35;24.53
45078;BME280;60508;42.622;25.416;2022-08-19T12:18:48;96332.06;;;36.79;24.20
45078;BME280;60508;42.622;25.416;2022-08-19T12:21:19;96334.59;;;36.70;25.05
45078;BME280;60508;42.622;25.416;2022-08-19T12:23:49;96323.66;;;36.79;25.01
45078;BME280;60508;42.622;25.416;2022-08-19T12:26:15;96339.47;;;36.42;25.45
45078;BME280;60508;42.622;25.416;2022-08-19T12:28:42;96334.66;;;36.66;25.05
45078;BME280;60508;42.622;25.416;2022-08-19T12:31:09;96325.81;;;36.91;24.98
45078;BME280;60508;42.622;25.416;2022-08-19T12:33:38;96329.06;;;37.10;25.17
45078;BME280;60508;42.622;25.416;2022-08-19T12:36:06;96336.13;;;37.18;24.24
45078;BME280;60508;42.622;25.416;2022-08-19T12:38:33;96322.41;;;37.24;23.66
45078;BME280;60508;42.622;25.416;2022-08-19T12:41:00;96312.84;;;37.41;23.56
45078;BME280;60508;42.622;25.416;2022-08-19T12:43:26;96299.66;;;37.22;23.46
45078;BME280;60508;42.622;25.416;2022-08-19T12:45:52;96313.09;;;37.31;23.49
45078;BME280;60508;42.622;25.416;2022-08-19T12:48:18;96331.50;;;37.48;23.81
45078;BME280;60508;42.622;25.416;2022-08-19T12:50:45;96317.00;;;37.53;23.70
45078;BME280;60508;42.622;25.416;2022-08-19T12:53:11;96303.19;;;37.62;23.60
45078;BME280;60508;42.622;25.416;2022-08-19T12:55:38;96318.44;;;37.61;23.93
45078;BME280;60508;42.622;25.416;2022-08-19T12:58:05;96314.91;;;37.57;23.75
45078;BME280;60508;42.622;25.416;2022-08-19T13:00:31;96321.66;;;37.60;23.86
45078;BME280;60508;42.622;25.416;2022-08-19T13:02:59;96313.03;;;37.71;23.70
45078;BME280;60508;42.622;25.416;2022-08-19T13:05:28;96296.75;;;37.82;23.44
45078;BME280;60508;42.622;25.416;2022-08-19T13:07:57;96309.28;;;37.77;23.47